createdAt,value
2023-04-15T00:00:26.923Z,98166.59
2023-04-15T00:03:30.039Z,98168.62
2023-04-15T00:06:32.538Z,98160.75
2023-04-15T00:09:34.906Z,98163.84
2023-04-15T00:12:37.169Z,98165.66
2023-04-15T00:15:39.480Z,98170.69
2023-04-15T00:18:41.775Z,98173.16
2023-04-15T00:21:43.971Z,98168.72
2023-04-15T00:24:46.346Z,98172.37
2023-04-15T00:27:48.846Z,98177.66
2023-04-15T00:30:51.251Z,98178.16
2023-04-15T00:33:53.478Z,98175.94
2023-04-15T00:36:55.739Z,98171.91
2023-04-15T00:39:57.923Z,98162.84
2023-04-15T00:43:00.319Z,98169.53
2023-04-15T00:46:04.881Z,98166.28
2023-04-15T00:49:07.665Z,98163.66
2023-04-15T00:52:10.000Z,98165.69
2023-04-15T00:55:12.183Z,98161.84
2023-04-15T00:58:15.234Z,98157.63
2023-04-15T01:01:21.498Z,98162.09
2023-04-15T01:04:23.966Z,98151.34
2023-04-15T01:07:26.358Z,98154.78
2023-04-15T01:10:28.625Z,98162.09
2023-04-15T01:13:31.280Z,98160.69
2023-04-15T01:16:33.575Z,98155.59
2023-04-15T01:19:39.096Z,98151.34
2023-04-15T01:22:41.640Z,98159.66
2023-04-15T01:25:44.394Z,98154.38
2023-04-15T01:28:46.551Z,98152.78
2023-04-15T01:31:53.346Z,98156.00
2023-04-15T01:34:55.610Z,98153.59
2023-04-15T01:38:12.461Z,98154.19
2023-04-15T01:41:15.316Z,98144.88
2023-04-15T01:44:17.697Z,98146.28
2023-04-15T01:47:19.912Z,98153.56
2023-04-15T01:50:22.103Z,98151.56
2023-04-15T01:53:25.385Z,98151.13
2023-04-15T01:56:27.528Z,98157.19
2023-04-15T01:59:31.413Z,98162.47
2023-04-15T02:02:34.566Z,98159.88
2023-04-15T02:05:36.908Z,98170.63
2023-04-15T02:08:39.188Z,98167.16
2023-04-15T02:11:41.746Z,98165.75
2023-04-15T02:14:43.979Z,98161.69
2023-04-15T02:17:50.860Z,98157.03
2023-04-15T02:20:53.343Z,98159.88
2023-04-15T02:23:55.988Z,98152.16
2023-04-15T02:26:58.230Z,98151.97
2023-04-15T02:30:00.610Z,98154.81
2023-04-15T02:33:03.440Z,98155.63
2023-04-15T02:36:06.420Z,98157.44
2023-04-15T02:39:08.717Z,98159.28
2023-04-15T02:42:12.018Z,98153.44
2023-04-15T02:45:14.242Z,98157.88
2023-04-15T02:48:19.003Z,98158.88
2023-04-15T02:51:22.851Z,98156.66
2023-04-15T02:54:26.208Z,98166.19
2023-04-15T02:57:29.580Z,98170.66
2023-04-15T03:00:31.804Z,98167.00
2023-04-15T03:03:34.097Z,98170.66
2023-04-15T03:06:36.371Z,98165.41
2023-04-15T03:09:40.486Z,98173.50
2023-04-15T03:12:42.739Z,98165.41
2023-04-15T03:15:48.399Z,98170.66
2023-04-15T03:18:50.637Z,98167.84
2023-04-15T03:21:52.819Z,98166.81
2023-04-15T03:24:54.985Z,98167.84
2023-04-15T03:27:57.274Z,98161.53
2023-04-15T03:31:00.040Z,98162.34
2023-04-15T03:34:02.254Z,98161.94
2023-04-15T03:37:05.389Z,98168.22
2023-04-15T03:40:08.773Z,98167.22
2023-04-15T03:43:11.364Z,98153.81
2023-04-15T03:46:13.609Z,98163.53
2023-04-15T03:49:16.335Z,98167.38
2023-04-15T03:52:18.533Z,98172.06
2023-04-15T03:55:20.800Z,98166.78
2023-04-15T03:58:23.201Z,98172.50
2023-04-15T04:01:25.440Z,98170.66
2023-04-15T04:04:27.697Z,98171.03
2023-04-15T04:07:30.339Z,98170.22
2023-04-15T04:10:32.731Z,98173.50
2023-04-15T04:13:34.977Z,98168.00
2023-04-15T04:16:37.229Z,98179.97
2023-04-15T04:19:39.456Z,98181.56
2023-04-15T04:22:41.788Z,98179.53
2023-04-15T04:25:43.961Z,98175.91
2023-04-15T04:28:46.215Z,98174.69
2023-04-15T04:31:48.802Z,98176.72
2023-04-15T04:34:51.058Z,98174.28
2023-04-15T04:37:53.792Z,98175.06
2023-04-15T04:40:56.006Z,98179.75
2023-04-15T04:43:58.389Z,98169.59
2023-04-15T04:47:00.695Z,98170.78
2023-04-15T04:50:03.576Z,98176.03
2023-04-15T04:53:06.084Z,98175.59
2023-04-15T04:56:08.315Z,98179.00
2023-04-15T04:59:10.594Z,98186.00
2023-04-15T05:02:12.908Z,98175.75
2023-04-15T05:05:15.232Z,98177.19
2023-04-15T05:08:17.456Z,98175.91
2023-04-15T05:11:19.620Z,98172.69
2023-04-15T05:14:23.326Z,98170.53
2023-04-15T05:17:25.745Z,98169.19
2023-04-15T05:20:27.946Z,98182.19
2023-04-15T05:23:30.363Z,98179.25
2023-04-15T05:26:32.621Z,98174.94
2023-04-15T05:29:35.090Z,98181.09
2023-04-15T05:32:37.388Z,98177.50
2023-04-15T05:35:39.639Z,98178.09
2023-04-15T05:38:42.121Z,98189.72
2023-04-15T05:41:44.781Z,98183.09
2023-04-15T05:44:47.046Z,98192.25
2023-04-15T05:47:51.016Z,98194.09
2023-04-15T05:50:53.294Z,98197.78
2023-04-15T05:53:55.638Z,98200.16
2023-04-15T05:56:58.421Z,98190.88
2023-04-15T06:00:00.610Z,98195.06
2023-04-15T06:03:02.823Z,98201.13
2023-04-15T06:06:05.085Z,98202.78
2023-04-15T06:09:07.517Z,98214.84
2023-04-15T06:12:12.384Z,98218.53
2023-04-15T06:15:14.884Z,98218.06
2023-04-15T06:18:17.047Z,98220.06
2023-04-15T06:21:19.479Z,98225.28
2023-04-15T06:24:21.717Z,98236.09
2023-04-15T06:27:23.940Z,98227.63
2023-04-15T06:30:26.368Z,98232.44
2023-04-15T06:33:28.751Z,98236.00
2023-04-15T06:36:31.061Z,98234.59
2023-04-15T06:39:33.313Z,98236.84
2023-04-15T06:42:36.791Z,98240.94
2023-04-15T06:45:39.522Z,98241.91
2023-04-15T06:48:41.757Z,98241.19
2023-04-15T06:51:43.971Z,98247.69
2023-04-15T06:54:46.353Z,98245.41
2023-04-15T06:57:48.773Z,98234.94
2023-04-15T07:00:51.140Z,98242.81
2023-04-15T07:03:53.350Z,98250.78
2023-04-15T07:06:55.691Z,98245.53
2023-04-15T07:09:57.882Z,98256.53
2023-04-15T07:13:00.126Z,98259.53
2023-04-15T07:16:02.285Z,98268.75
2023-04-15T07:19:04.707Z,98263.44
2023-04-15T07:22:07.763Z,98274.16
2023-04-15T07:25:10.038Z,98266.31
2023-04-15T07:28:12.259Z,98266.19
2023-04-15T07:31:15.116Z,98266.06
2023-04-15T07:34:19.089Z,98263.53
2023-04-15T07:37:21.337Z,98265.97
2023-04-15T07:40:23.933Z,98271.50
2023-04-15T07:43:26.125Z,98272.75
2023-04-15T07:46:28.560Z,98268.66
2023-04-15T07:49:30.806Z,98274.38
2023-04-15T07:52:39.083Z,98278.00
2023-04-15T07:55:41.466Z,98284.69
2023-04-15T07:58:43.673Z,98270.66
2023-04-15T08:01:45.930Z,98280.25
2023-04-15T08:04:48.786Z,98274.12
2023-04-15T08:07:51.101Z,98280.78
2023-04-15T08:10:53.321Z,98280.56
2023-04-15T08:13:55.609Z,98282.00
2023-04-15T08:16:57.783Z,98281.53
2023-04-15T08:19:59.959Z,98283.00
2023-04-15T08:23:02.235Z,98286.31
2023-04-15T08:26:04.755Z,98292.84
2023-04-15T08:29:06.906Z,98290.38
2023-04-15T08:32:09.624Z,98291.56
2023-04-15T08:35:11.846Z,98297.44
2023-04-15T08:38:14.059Z,98292.88
2023-04-15T08:41:24.077Z,98296.56
2023-04-15T08:44:27.127Z,98299.50
2023-04-15T08:47:31.885Z,98301.94
2023-04-15T08:50:34.223Z,98304.72
2023-04-15T08:53:37.627Z,98302.16
2023-04-15T08:56:40.710Z,98304.06
2023-04-15T08:59:43.613Z,98304.50
2023-04-15T09:02:46.139Z,98307.66
2023-04-15T09:05:48.368Z,98305.84
2023-04-15T09:08:51.969Z,98307.09
2023-04-15T09:11:54.188Z,98313.97
2023-04-15T09:14:56.375Z,98309.34
2023-04-15T09:17:58.612Z,98304.25
2023-04-15T09:21:13.237Z,98311.47
2023-04-15T09:24:15.609Z,98309.78
2023-04-15T09:27:17.894Z,98306.09
2023-04-15T09:30:20.548Z,98311.28
2023-04-15T09:33:22.859Z,98307.47
2023-04-15T09:36:25.275Z,98309.84
2023-04-15T09:39:27.422Z,98306.81
2023-04-15T09:42:29.832Z,98302.69
2023-04-15T09:45:33.673Z,98306.03
2023-04-15T09:48:36.669Z,98299.03
2023-04-15T09:51:39.048Z,98292.72
2023-04-15T09:54:41.669Z,98300.28
2023-04-15T09:57:47.412Z,98298.50
2023-04-15T10:00:51.439Z,98297.94
2023-04-15T10:03:54.642Z,98299.59
2023-04-15T10:06:57.192Z,98299.25
2023-04-15T10:10:00.592Z,98298.88
2023-04-15T10:13:02.892Z,98306.03
2023-04-15T10:16:12.139Z,98299.09
2023-04-15T10:19:16.238Z,98306.97
2023-04-15T10:22:18.535Z,98307.25
2023-04-15T10:25:21.178Z,98306.75
2023-04-15T10:28:23.503Z,98305.28
2023-04-15T10:31:25.718Z,98300.47
2023-04-15T10:34:28.344Z,98299.25
2023-04-15T10:37:37.584Z,98296.72
2023-04-15T10:40:40.054Z,98295.44
2023-04-15T10:43:50.195Z,98290.12
2023-04-15T10:46:52.546Z,98299.81
2023-04-15T10:49:59.431Z,98304.19
2023-04-15T10:53:04.863Z,98298.63
2023-04-15T10:56:07.453Z,98311.97
2023-04-15T10:59:09.927Z,98311.44
2023-04-15T11:02:13.573Z,98313.44
2023-04-15T11:05:17.122Z,98313.22
2023-04-15T11:08:19.830Z,98325.06
2023-04-15T11:11:22.133Z,98322.03
2023-04-15T11:14:24.382Z,98326.56
2023-04-15T11:17:29.807Z,98328.69
2023-04-15T11:20:32.364Z,98327.34
2023-04-15T11:23:40.125Z,98336.22
2023-04-15T11:26:42.394Z,98332.50
2023-04-15T11:29:44.675Z,98329.34
2023-04-15T11:32:47.214Z,98331.59
2023-04-15T11:35:50.060Z,98330.72
2023-04-15T11:38:52.286Z,98330.31
2023-04-15T11:41:54.679Z,98335.47
2023-04-15T11:45:15.932Z,98331.66
2023-04-15T11:48:18.847Z,98331.28
2023-04-15T11:51:22.621Z,98340.69
2023-04-15T11:54:24.838Z,98337.91
2023-04-15T11:57:32.085Z,98334.72
2023-04-15T12:00:35.825Z,98346.06
2023-04-15T12:03:45.843Z,98350.91
2023-04-15T12:06:49.402Z,98347.87
2023-04-15T12:09:57.898Z,98347.06
2023-04-15T12:13:00.116Z,98353.06
2023-04-15T12:16:03.794Z,98361.00
2023-04-15T12:19:14.059Z,98356.25
2023-04-15T12:22:17.553Z,98351.59
2023-04-15T12:25:19.758Z,98347.41
2023-04-15T12:28:21.953Z,98345.22
2023-04-15T12:31:24.225Z,98352.25
2023-04-15T12:34:37.510Z,98358.84
2023-04-15T12:37:39.663Z,98361.72
2023-04-15T12:40:41.832Z,98361.06
2023-04-15T12:43:47.200Z,98367.22
2023-04-15T12:46:50.337Z,98373.44
2023-04-15T12:49:52.528Z,98373.28
2023-04-15T12:52:54.769Z,98379.13
2023-04-15T12:55:56.999Z,98370.50
2023-04-15T12:58:59.157Z,98371.69
2023-04-15T13:02:02.975Z,98377.13
2023-04-15T13:05:05.682Z,98381.00
2023-04-15T13:08:08.110Z,98374.78
2023-04-15T13:11:10.679Z,98382.44
2023-04-15T13:14:13.197Z,98389.88
2023-04-15T13:17:17.518Z,98398.72
2023-04-15T13:20:19.739Z,98393.87
2023-04-15T13:23:21.934Z,98391.59
2023-04-15T13:26:24.133Z,98391.69
2023-04-15T13:29:26.628Z,98395.06
2023-04-15T13:32:28.813Z,98394.31
2023-04-15T13:35:32.587Z,98396.19
2023-04-15T13:38:34.830Z,98386.88
2023-04-15T13:41:37.519Z,98396.56
2023-04-15T13:44:40.081Z,98403.66
2023-04-15T13:47:42.450Z,98400.37
2023-04-15T13:50:45.742Z,98398.00
2023-04-15T13:53:48.201Z,98403.03
2023-04-15T13:56:50.498Z,98403.25
2023-04-15T13:59:52.751Z,98409.47
2023-04-15T14:02:55.074Z,98411.88
2023-04-15T14:05:58.113Z,98412.94
2023-04-15T14:09:00.362Z,98415.69
2023-04-15T14:12:02.615Z,98412.03
2023-04-15T14:15:05.352Z,98420.94
2023-04-15T14:18:08.182Z,98415.78
2023-04-15T14:21:10.537Z,98415.97
2023-04-15T14:24:12.736Z,98420.84
2023-04-15T14:27:15.479Z,98425.13
2023-04-15T14:30:17.885Z,98428.03
2023-04-15T14:33:20.125Z,98422.34
2023-04-15T14:36:22.634Z,98431.16
2023-04-15T14:39:24.855Z,98433.78
2023-04-15T14:42:27.040Z,98435.06
2023-04-15T14:45:30.456Z,98435.50
2023-04-15T14:48:32.737Z,98440.59
2023-04-15T14:51:34.988Z,98442.00
2023-04-15T14:54:37.418Z,98439.09
2023-04-15T14:57:41.004Z,98446.97
2023-04-15T15:00:44.554Z,98453.81
2023-04-15T15:03:46.970Z,98445.22
2023-04-15T15:06:49.428Z,98447.19
2023-04-15T15:09:51.638Z,98441.09
2023-04-15T15:12:53.857Z,98447.22
2023-04-15T15:15:56.168Z,98447.81
2023-04-15T15:18:58.483Z,98453.66
2023-04-15T15:22:00.833Z,98454.41
2023-04-15T15:25:03.127Z,98456.03
2023-04-15T15:28:05.862Z,98460.63
2023-04-15T15:31:08.141Z,98466.31
2023-04-15T15:34:10.408Z,98465.72
2023-04-15T15:37:12.895Z,98468.94
2023-04-15T15:40:15.190Z,98475.63
2023-04-15T15:43:17.433Z,98474.69
2023-04-15T15:46:19.687Z,98472.75
2023-04-15T15:49:21.960Z,98477.03
2023-04-15T15:52:24.177Z,98486.38
2023-04-15T15:55:27.255Z,98486.97
2023-04-15T15:58:30.540Z,98498.63
2023-04-15T16:01:32.897Z,98497.47
2023-04-15T16:04:35.614Z,98500.53
2023-04-15T16:07:37.941Z,98501.94
2023-04-15T16:10:40.861Z,98510.47
2023-04-15T16:13:43.086Z,98502.22
2023-04-15T16:16:45.381Z,98510.78
2023-04-15T16:19:55.583Z,98507.53
2023-04-15T16:23:09.477Z,98518.31
2023-04-15T16:26:11.844Z,98526.38
2023-04-15T16:29:14.107Z,98513.19
2023-04-15T16:32:16.733Z,98517.47
2023-04-15T16:35:19.325Z,98526.91
2023-04-15T16:38:21.682Z,98533.75
2023-04-15T16:41:24.167Z,98535.69
2023-04-15T16:44:26.423Z,98533.91
2023-04-15T16:47:28.648Z,98533.75
2023-04-15T16:50:31.523Z,98543.06
2023-04-15T16:53:33.722Z,98545.53
2023-04-15T16:56:36.587Z,98546.84
2023-04-15T16:59:39.008Z,98550.59
2023-04-15T17:02:41.386Z,98548.69
2023-04-15T17:05:43.850Z,98550.91
2023-04-15T17:08:46.335Z,98562.09
2023-04-15T17:11:48.883Z,98552.91
2023-04-15T17:14:51.105Z,98566.53
2023-04-15T17:17:53.629Z,98564.62
2023-04-15T17:20:56.478Z,98564.75
2023-04-15T17:23:58.768Z,98575.37
2023-04-15T17:27:02.647Z,98579.72
2023-04-15T17:30:07.503Z,98584.97
2023-04-15T17:34:00.375Z,98584.37
2023-04-15T17:36:32.250Z,98594.69
2023-04-15T17:39:34.448Z,98594.47
2023-04-15T17:42:37.164Z,98592.25
2023-04-15T17:45:39.419Z,98596.75
2023-04-15T17:48:41.842Z,98603.09
2023-04-15T17:51:46.016Z,98614.63
2023-04-15T17:54:49.071Z,98614.44
2023-04-15T17:57:52.106Z,98617.91
2023-04-15T18:00:54.617Z,98615.31
2023-04-15T18:03:56.991Z,98616.34
2023-04-15T18:06:59.553Z,98627.25
2023-04-15T18:10:01.828Z,98626.19
2023-04-15T18:13:04.349Z,98623.78
2023-04-15T18:16:07.127Z,98630.06
2023-04-15T18:19:11.269Z,98642.16
2023-04-15T18:22:13.816Z,98641.97
2023-04-15T18:25:16.048Z,98640.94
2023-04-15T18:28:18.541Z,98642.28
2023-04-15T18:31:21.261Z,98647.41
2023-04-15T18:34:23.441Z,98649.69
2023-04-15T18:37:26.836Z,98646.03
2023-04-15T18:40:29.273Z,98666.44
2023-04-15T18:43:32.427Z,98671.97
2023-04-15T18:46:34.971Z,98673.81
2023-04-15T18:49:37.623Z,98686.66
2023-04-15T18:52:40.105Z,98688.91
2023-04-15T18:55:42.621Z,98688.09
2023-04-15T18:59:27.145Z,98699.69
2023-04-15T19:02:09.028Z,98706.44
2023-04-15T19:05:11.645Z,98709.28
2023-04-15T19:08:14.739Z,98715.16
2023-04-15T19:11:17.197Z,98713.53
2023-04-15T19:14:19.854Z,98724.91
2023-04-15T19:17:22.167Z,98719.84
2023-04-15T19:20:24.700Z,98732.69
2023-04-15T19:23:27.241Z,98736.13
2023-04-15T19:26:29.659Z,98736.53
2023-04-15T19:29:32.146Z,98741.41
2023-04-15T19:32:35.581Z,98744.44
2023-04-15T19:35:40.515Z,98739.94
2023-04-15T19:38:42.966Z,98748.28
2023-04-15T19:41:45.856Z,98744.41
2023-04-15T19:44:48.342Z,98745.25
2023-04-15T19:47:50.950Z,98742.41
2023-04-15T19:50:53.467Z,98752.97
2023-04-15T19:53:56.891Z,98760.72
2023-04-15T19:56:59.444Z,98758.87
2023-04-15T20:00:02.465Z,98759.81
2023-04-15T20:03:05.194Z,98768.34
2023-04-15T20:06:07.596Z,98768.56
2023-04-15T20:09:11.276Z,98769.78
2023-04-15T20:12:49.142Z,98759.63
2023-04-15T20:15:36.645Z,98778.31
2023-04-15T20:18:39.251Z,98774.44
2023-04-15T20:21:41.498Z,98774.03
2023-04-15T20:24:43.681Z,98778.94
2023-04-15T20:27:46.219Z,98782.59
2023-04-15T20:30:48.348Z,98787.28
2023-04-15T20:33:50.881Z,98789.53
2023-04-15T20:36:53.355Z,98792.00
2023-04-15T20:39:55.829Z,98794.41
2023-04-15T20:42:58.293Z,98796.03
2023-04-15T20:46:07.094Z,98803.13
2023-04-15T20:49:20.202Z,98795.22
2023-04-15T20:52:22.448Z,98802.13
2023-04-15T20:55:24.732Z,98796.66
2023-04-15T20:58:27.125Z,98799.31
2023-04-15T21:01:29.589Z,98805.84
2023-04-15T21:04:31.994Z,98803.81
2023-04-15T21:07:34.406Z,98810.53
2023-04-15T21:10:36.736Z,98812.91
2023-04-15T21:13:39.109Z,98817.78
2023-04-15T21:16:41.737Z,98817.19
2023-04-15T21:19:44.004Z,98815.38
2023-04-15T21:22:46.192Z,98827.78
2023-04-15T21:25:48.395Z,98822.75
2023-04-15T21:28:51.088Z,98831.69
2023-04-15T21:31:53.294Z,98835.47
2023-04-15T21:34:55.526Z,98837.06
2023-04-15T21:37:57.694Z,98838.66
2023-04-15T21:41:01.133Z,98845.34
2023-04-15T21:44:04.055Z,98845.59
2023-04-15T21:47:06.288Z,98852.97
2023-04-15T21:50:09.156Z,98853.78
2023-04-15T21:53:11.363Z,98857.84
2023-04-15T21:56:13.583Z,98858.22
2023-04-15T21:59:15.962Z,98858.91
2023-04-15T22:02:18.238Z,98865.56
2023-04-15T22:05:20.483Z,98867.19
2023-04-15T22:08:22.656Z,98859.25
2023-04-15T22:11:28.677Z,98864.97
2023-04-15T22:14:31.042Z,98868.44
2023-04-15T22:17:33.481Z,98870.69
2023-04-15T22:20:35.646Z,98864.34
2023-04-15T22:23:37.855Z,98869.97
2023-04-15T22:26:40.048Z,98873.19
2023-04-15T22:29:42.204Z,98875.59
2023-04-15T22:32:44.413Z,98871.09
2023-04-15T22:35:46.603Z,98870.69
2023-04-15T22:38:48.777Z,98869.31
2023-04-15T22:41:51.003Z,98871.72
2023-04-15T22:44:53.273Z,98867.88
2023-04-15T22:47:55.660Z,98874.13
2023-04-15T22:50:57.911Z,98875.09
2023-04-15T22:54:00.355Z,98880.37
2023-04-15T22:57:02.688Z,98884.25
2023-04-15T23:00:05.825Z,98885.38
2023-04-15T23:03:08.349Z,98884.00
2023-04-15T23:06:10.990Z,98880.84
2023-04-15T23:09:13.388Z,98879.25
2023-04-15T23:12:15.585Z,98875.00
2023-04-15T23:15:17.901Z,98876.19
2023-04-15T23:18:20.208Z,98878.78
2023-04-15T23:21:23.697Z,98882.56
2023-04-15T23:24:27.758Z,98878.66
2023-04-15T23:27:29.965Z,98878.72
2023-04-15T23:30:32.136Z,98873.91
2023-04-15T23:33:34.411Z,98879.19
2023-04-15T23:36:36.924Z,98873.66
2023-04-15T23:39:39.118Z,98883.84
2023-04-15T23:42:41.524Z,98886.16
2023-04-15T23:45:43.741Z,98885.09
2023-04-15T23:48:47.811Z,98887.03
2023-04-15T23:51:50.023Z,98887.94
2023-04-15T23:54:52.224Z,98891.91
2023-04-15T23:57:54.431Z,98886.88
